Aviation Digital Data Service (ADDS)

Output produced by METARs form (1729 UTC 24 June 2019)
found at http://www.aviationweather.gov/metar/data/
 
Forecast for: ETSH (HOLZDORF , DE)
Text: TAF ETSH 241316Z 2414/2423 09008G18KT 9999 NSW FEW360
Forecast period: 1400 to 2300 UTC 24 June 2019
Forecast type: FROM: standard forecast or significant change
Winds: from the E (90 degrees) at 9 MPH (8 knots; 4.1 m/s)
gusting to 21 MPH (18 knots; 9.3 m/s)
Visibility: 6 or more miles 10+ km)
Ceiling: at least 12,000 feet AGL
Clouds: few clouds at 36000 feet AGL
Weather: NSW  (no significant weather)